createdAt,value
2022-09-23T00:01:24.396Z,92.06
2022-09-23T00:03:52.390Z,91.95
2022-09-23T00:06:22.321Z,92.36
2022-09-23T00:08:53.748Z,93.39
2022-09-23T00:11:23.555Z,92.84
2022-09-23T00:13:54.355Z,93.08
2022-09-23T00:16:25.867Z,93.19
2022-09-23T00:18:53.903Z,92.46
2022-09-23T00:21:22.984Z,92.90
2022-09-23T00:23:50.975Z,92.45
2022-09-23T00:26:20.594Z,93.01
2022-09-23T00:28:49.002Z,92.85
2022-09-23T00:31:19.442Z,93.33
2022-09-23T00:33:48.779Z,93.14
2022-09-23T00:36:17.674Z,93.36
2022-09-23T00:38:46.792Z,93.54
2022-09-23T00:41:16.529Z,94.30
2022-09-23T00:43:46.785Z,93.58
2022-09-23T00:46:18.695Z,92.70
2022-09-23T00:48:49.566Z,92.27
2022-09-23T00:51:22.028Z,92.83
2022-09-23T00:53:52.675Z,92.99
2022-09-23T00:56:23.310Z,93.84
2022-09-23T00:58:51.803Z,93.16
2022-09-23T01:01:20.887Z,93.16
2022-09-23T01:03:51.443Z,93.97
2022-09-23T01:06:19.238Z,94.11
2022-09-23T01:08:48.550Z,94.16
2022-09-23T01:11:27.715Z,94.58
2022-09-23T01:14:09.967Z,94.44
2022-09-23T01:16:43.843Z,93.70
2022-09-23T01:19:35.738Z,94.45
2022-09-23T01:22:10.705Z,93.58
2022-09-23T01:24:48.928Z,94.09
2022-09-23T01:27:58.532Z,94.82
2022-09-23T01:30:48.753Z,94.94
2022-09-23T01:33:25.153Z,93.91
2022-09-23T01:36:08.468Z,93.75
2022-09-23T01:38:44.050Z,94.05
2022-09-23T01:41:26.703Z,94.15
2022-09-23T01:44:03.280Z,93.68
2022-09-23T01:46:36.619Z,94.04
2022-09-23T01:49:09.982Z,93.57
2022-09-23T01:51:43.013Z,93.42
2022-09-23T01:54:16.871Z,94.55
2022-09-23T01:56:52.396Z,94.66
2022-09-23T01:59:26.282Z,93.96
2022-09-23T02:02:02.624Z,94.02
2022-09-23T02:04:39.631Z,93.75
2022-09-23T02:07:15.248Z,94.09
2022-09-23T02:09:45.479Z,93.63
2022-09-23T02:12:18.294Z,93.89
2022-09-23T02:14:50.256Z,94.94
2022-09-23T02:17:26.492Z,94.35
2022-09-23T02:20:02.370Z,93.87
2022-09-23T02:22:36.332Z,94.83
2022-09-23T02:25:05.177Z,94.74
2022-09-23T02:27:40.610Z,94.45
2022-09-23T02:30:12.874Z,93.92
2022-09-23T02:32:51.139Z,93.99
2022-09-23T02:35:26.535Z,94.03
2022-09-23T02:38:02.551Z,95.07
2022-09-23T02:40:38.724Z,94.17
2022-09-23T02:43:11.965Z,94.57
2022-09-23T02:45:39.911Z,94.43
2022-09-23T02:48:14.686Z,94.76
2022-09-23T02:50:42.551Z,95.28
2022-09-23T02:53:10.511Z,95.65
2022-09-23T02:55:38.331Z,95.30
2022-09-23T02:58:06.429Z,95.08
2022-09-23T03:00:42.256Z,94.93
2022-09-23T03:03:29.770Z,94.41
2022-09-23T03:05:59.838Z,94.99
2022-09-23T03:08:42.865Z,95.29
2022-09-23T03:11:13.543Z,95.39
2022-09-23T03:13:55.947Z,95.31
2022-09-23T03:16:31.019Z,95.13
2022-09-23T03:19:13.299Z,94.77
2022-09-23T03:21:47.834Z,94.59
2022-09-23T03:24:16.926Z,95.50
2022-09-23T03:26:47.773Z,94.77
2022-09-23T03:29:17.880Z,94.80
2022-09-23T03:31:46.187Z,94.55
2022-09-23T03:34:19.498Z,95.50
2022-09-23T03:36:53.784Z,93.94
2022-09-23T03:39:29.527Z,94.64
2022-09-23T03:42:01.902Z,93.72
2022-09-23T03:44:31.206Z,93.55
2022-09-23T03:47:03.828Z,92.82
2022-09-23T03:49:40.370Z,94.12
2022-09-23T03:52:08.597Z,93.69
2022-09-23T03:54:36.431Z,93.50
2022-09-23T03:57:04.697Z,94.50
2022-09-23T03:59:32.631Z,94.21
2022-09-23T04:02:01.867Z,94.27
2022-09-23T04:04:33.898Z,93.56
2022-09-23T04:07:03.536Z,94.55
2022-09-23T04:09:31.924Z,93.41
2022-09-23T04:11:59.713Z,93.90
2022-09-23T04:14:27.888Z,94.70
2022-09-23T04:16:55.781Z,94.07
2022-09-23T04:19:23.899Z,93.63
2022-09-23T04:21:51.748Z,93.51
2022-09-23T04:24:21.717Z,94.54
2022-09-23T04:26:52.240Z,93.56
2022-09-23T04:29:20.164Z,94.09
2022-09-23T04:31:48.563Z,94.13
2022-09-23T04:34:17.507Z,94.32
2022-09-23T04:36:45.502Z,93.29
2022-09-23T04:39:14.900Z,94.03
2022-09-23T04:41:44.423Z,93.70
2022-09-23T04:44:12.700Z,94.19
2022-09-23T04:46:41.521Z,93.79
2022-09-23T04:49:09.907Z,93.99
2022-09-23T04:51:37.750Z,93.85
2022-09-23T04:54:06.110Z,92.74
2022-09-23T04:56:33.907Z,92.92
2022-09-23T04:59:03.242Z,92.53
2022-09-23T05:01:34.278Z,92.22
2022-09-23T05:04:05.332Z,92.11
2022-09-23T05:06:34.936Z,90.92
2022-09-23T05:09:03.887Z,91.16
2022-09-23T05:11:32.737Z,91.98
2022-09-23T05:14:00.816Z,92.72
2022-09-23T05:16:30.468Z,91.43
2022-09-23T05:18:59.416Z,92.54
2022-09-23T05:21:29.031Z,92.00
2022-09-23T05:24:00.311Z,91.85
2022-09-23T05:26:30.508Z,91.38
2022-09-23T05:29:00.336Z,91.49
2022-09-23T05:31:31.213Z,92.45
2022-09-23T05:34:00.840Z,91.65
2022-09-23T05:36:34.281Z,90.95
2022-09-23T05:39:05.880Z,90.03
2022-09-23T05:41:34.358Z,89.79
2022-09-23T05:44:02.691Z,89.17
2022-09-23T05:46:33.056Z,88.46
2022-09-23T05:49:03.545Z,87.59
2022-09-23T05:51:32.289Z,88.02
2022-09-23T05:54:03.943Z,86.74
2022-09-23T05:56:33.547Z,86.07
2022-09-23T05:59:02.916Z,84.64
2022-09-23T06:01:34.435Z,84.61
2022-09-23T06:04:04.232Z,84.75
2022-09-23T06:06:34.249Z,86.30
2022-09-23T06:09:03.353Z,85.86
2022-09-23T06:11:32.630Z,85.00
2022-09-23T06:14:02.434Z,84.61
2022-09-23T06:16:39.371Z,85.30
2022-09-23T06:19:09.504Z,85.24
2022-09-23T06:21:39.572Z,83.39
2022-09-23T06:24:13.708Z,84.10
2022-09-23T06:26:45.891Z,82.79
2022-09-23T06:29:14.448Z,82.97
2022-09-23T06:31:43.862Z,81.70
2022-09-23T06:34:14.139Z,82.66
2022-09-23T06:36:45.083Z,80.64
2022-09-23T06:39:15.179Z,80.75
2022-09-23T06:41:44.049Z,80.50
2022-09-23T06:44:12.107Z,80.49
2022-09-23T06:46:40.148Z,80.93
2022-09-23T06:49:09.423Z,79.44
2022-09-23T06:51:37.234Z,78.21
2022-09-23T06:54:05.254Z,77.30
2022-09-23T06:56:37.987Z,77.78
2022-09-23T06:59:07.317Z,77.40
2022-09-23T07:01:35.495Z,77.60
2022-09-23T07:04:03.797Z,76.72
2022-09-23T07:06:33.110Z,76.81
2022-09-23T07:09:01.122Z,76.23
2022-09-23T07:11:29.109Z,76.50
2022-09-23T07:13:56.954Z,76.37
2022-09-23T07:16:24.870Z,76.57
2022-09-23T07:18:53.468Z,75.42
2022-09-23T07:21:21.695Z,75.87
2022-09-23T07:23:52.118Z,75.13
2022-09-23T07:26:21.138Z,75.17
2022-09-23T07:28:49.012Z,74.92
2022-09-23T07:31:30.454Z,75.82
2022-09-23T07:34:03.093Z,75.20
2022-09-23T07:36:32.665Z,75.38
2022-09-23T07:39:03.421Z,76.05
2022-09-23T07:41:33.437Z,75.86
2022-09-23T07:44:01.777Z,74.95
2022-09-23T07:46:32.763Z,75.15
2022-09-23T07:49:01.958Z,75.38
2022-09-23T07:51:36.142Z,74.81
2022-09-23T07:54:08.400Z,74.82
2022-09-23T07:56:37.161Z,75.17
2022-09-23T07:59:05.246Z,74.82
2022-09-23T08:01:34.755Z,74.71
2022-09-23T08:04:06.684Z,74.84
2022-09-23T08:06:35.777Z,74.89
2022-09-23T08:09:05.112Z,74.28
2022-09-23T08:11:33.097Z,74.63
2022-09-23T08:14:00.938Z,74.80
2022-09-23T08:16:29.172Z,74.10
2022-09-23T08:18:57.187Z,74.10
2022-09-23T08:21:24.971Z,73.25
2022-09-23T08:23:52.977Z,73.18
2022-09-23T08:26:22.598Z,72.84
2022-09-23T08:28:54.447Z,72.85
2022-09-23T08:31:23.234Z,72.26
2022-09-23T08:33:56.287Z,72.23
2022-09-23T08:36:24.402Z,72.33
2022-09-23T08:38:52.704Z,72.25
2022-09-23T08:41:30.370Z,71.94
2022-09-23T08:44:03.632Z,70.98
2022-09-23T08:46:37.607Z,70.16
2022-09-23T08:49:07.195Z,70.20
2022-09-23T08:51:40.992Z,69.51
2022-09-23T08:54:11.227Z,68.26
2022-09-23T08:56:43.506Z,68.30
2022-09-23T08:59:15.969Z,67.93
2022-09-23T09:01:46.255Z,68.36
2022-09-23T09:04:21.444Z,65.80
2022-09-23T09:06:55.892Z,65.65
2022-09-23T09:09:29.561Z,65.59
2022-09-23T09:12:04.214Z,65.53
2022-09-23T09:14:38.865Z,63.97
2022-09-23T09:17:10.655Z,62.76
2022-09-23T09:19:58.010Z,62.35
2022-09-23T09:22:44.669Z,63.10
2022-09-23T09:25:24.805Z,62.18
2022-09-23T09:27:56.846Z,62.24
2022-09-23T09:30:25.629Z,61.87
2022-09-23T09:32:58.999Z,61.45
2022-09-23T09:35:36.672Z,60.57
2022-09-23T09:38:06.122Z,60.39
2022-09-23T09:40:35.465Z,60.82
2022-09-23T09:43:05.492Z,61.01
2022-09-23T09:45:57.507Z,60.44
2022-09-23T09:48:33.486Z,60.52
2022-09-23T09:51:19.574Z,60.14
2022-09-23T09:53:47.442Z,60.14
2022-09-23T09:56:16.768Z,59.49
2022-09-23T09:58:49.724Z,60.25
2022-09-23T10:01:22.906Z,59.64
2022-09-23T10:03:59.146Z,58.89
2022-09-23T10:06:29.443Z,58.77
2022-09-23T10:09:13.751Z,58.59
2022-09-23T10:11:42.891Z,59.24
2022-09-23T10:14:18.032Z,58.22
2022-09-23T10:16:47.201Z,58.07
2022-09-23T10:19:27.365Z,58.64
2022-09-23T10:22:00.197Z,58.17
2022-09-23T10:24:30.941Z,58.09
2022-09-23T10:27:03.112Z,59.12
2022-09-23T10:29:34.881Z,57.57
2022-09-23T10:32:21.750Z,56.83
2022-09-23T10:34:53.926Z,56.65
2022-09-23T10:37:31.163Z,55.74
2022-09-23T10:40:16.996Z,55.81
2022-09-23T10:43:15.491Z,54.84
2022-09-23T10:46:07.454Z,55.40
2022-09-23T10:48:46.249Z,55.10
2022-09-23T10:51:25.465Z,54.29
2022-09-23T10:54:02.397Z,54.43
2022-09-23T10:56:36.522Z,53.79
2022-09-23T10:59:27.211Z,53.31
2022-09-23T11:02:14.429Z,53.64
2022-09-23T11:05:01.925Z,51.72
2022-09-23T11:07:37.437Z,51.76
2022-09-23T11:10:49.704Z,51.34
2022-09-23T11:13:31.759Z,51.71
2022-09-23T11:16:08.881Z,51.43
2022-09-23T11:19:02.027Z,50.64
2022-09-23T11:21:45.809Z,50.25
2022-09-23T11:24:39.508Z,50.65
2022-09-23T11:27:17.882Z,49.72
2022-09-23T11:30:02.674Z,49.20
2022-09-23T11:32:51.171Z,50.49
2022-09-23T11:35:25.095Z,48.76
2022-09-23T11:37:57.711Z,49.54
2022-09-23T11:40:31.918Z,49.22
2022-09-23T11:43:02.457Z,48.96
2022-09-23T11:45:35.762Z,48.46
2022-09-23T11:48:09.730Z,50.12
2022-09-23T11:50:45.660Z,48.51
2022-09-23T11:53:19.273Z,48.61
2022-09-23T11:55:57.742Z,48.08
2022-09-23T11:58:31.377Z,46.48
2022-09-23T12:01:07.065Z,45.44
2022-09-23T12:03:45.136Z,45.84
2022-09-23T12:06:19.387Z,45.70
2022-09-23T12:08:47.211Z,44.94
2022-09-23T12:11:25.995Z,45.60
2022-09-23T12:14:08.469Z,46.74
2022-09-23T12:16:55.151Z,46.83
2022-09-23T12:19:38.721Z,46.43
2022-09-23T12:22:28.511Z,45.81
2022-09-23T12:25:00.520Z,45.48
2022-09-23T12:27:36.549Z,46.18
2022-09-23T12:30:07.842Z,46.76
2022-09-23T12:32:35.579Z,46.92
2022-09-23T12:35:03.495Z,45.97
2022-09-23T12:37:37.115Z,46.36
2022-09-23T12:40:10.553Z,45.55
2022-09-23T12:42:45.923Z,45.42
2022-09-23T12:45:38.630Z,44.60
2022-09-23T12:48:46.094Z,45.81
2022-09-23T12:51:19.609Z,45.83
2022-09-23T12:54:13.125Z,46.04
2022-09-23T12:57:00.756Z,43.91
2022-09-23T12:59:33.461Z,45.19
2022-09-23T13:02:26.937Z,43.86
2022-09-23T13:05:18.452Z,43.95
2022-09-23T13:07:49.692Z,44.88
2022-09-23T13:10:23.813Z,45.25
2022-09-23T13:12:53.502Z,44.82
2022-09-23T13:15:30.013Z,45.23
2022-09-23T13:18:45.989Z,45.37
2022-09-23T13:21:20.167Z,44.99
2022-09-23T13:24:19.403Z,44.31
2022-09-23T13:26:48.406Z,44.66
2022-09-23T13:29:20.375Z,43.93
2022-09-23T13:31:48.676Z,44.55
2022-09-23T13:34:21.240Z,44.03
2022-09-23T13:36:50.504Z,44.22
2022-09-23T13:39:24.508Z,43.80
2022-09-23T13:41:54.813Z,44.09
2022-09-23T13:44:23.599Z,44.69
2022-09-23T13:46:54.899Z,44.07
2022-09-23T13:49:25.406Z,44.29
2022-09-23T13:51:55.472Z,44.48
2022-09-23T13:54:31.992Z,44.35
2022-09-23T13:57:01.174Z,44.95
2022-09-23T13:59:31.488Z,45.73
2022-09-23T14:02:08.140Z,44.44
2022-09-23T14:04:36.136Z,44.22
2022-09-23T14:07:07.884Z,44.09
2022-09-23T14:09:37.854Z,44.36
2022-09-23T14:12:08.441Z,46.08
2022-09-23T14:14:39.472Z,45.88
2022-09-23T14:17:10.054Z,43.96
2022-09-23T14:19:38.292Z,43.71
2022-09-23T14:22:12.268Z,41.75
2022-09-23T14:24:40.403Z,40.00
2022-09-23T14:27:14.903Z,43.18
2022-09-23T14:29:46.174Z,44.15
2022-09-23T14:32:16.745Z,45.99
2022-09-23T14:34:50.798Z,45.99
2022-09-23T14:37:51.188Z,46.53
2022-09-23T14:40:21.069Z,46.76
2022-09-23T14:42:52.078Z,45.76
2022-09-23T14:45:22.924Z,44.69
2022-09-23T14:47:52.768Z,45.45
2022-09-23T14:50:39.685Z,45.33
2022-09-23T14:53:45.571Z,44.64
2022-09-23T14:56:18.581Z,44.21
2022-09-23T14:58:52.823Z,43.66
2022-09-23T15:01:39.929Z,43.45
2022-09-23T15:04:18.832Z,43.06
2022-09-23T15:06:51.180Z,44.65
2022-09-23T15:09:24.661Z,41.55
2022-09-23T15:11:58.171Z,40.74
2022-09-23T15:14:44.914Z,41.49
2022-09-23T15:17:30.382Z,42.93
2022-09-23T15:20:01.589Z,42.25
2022-09-23T15:22:29.626Z,43.69
2022-09-23T15:25:15.286Z,46.20
2022-09-23T15:27:56.976Z,46.99
2022-09-23T15:30:25.050Z,46.97
2022-09-23T15:32:53.622Z,46.97
2022-09-23T15:35:25.568Z,47.30
2022-09-23T15:37:57.171Z,48.51
2022-09-23T15:40:26.756Z,49.11
2022-09-23T15:42:58.726Z,48.84
2022-09-23T15:45:33.423Z,48.31
2022-09-23T15:48:06.814Z,47.43
2022-09-23T15:50:35.411Z,47.86
2022-09-23T15:53:03.561Z,48.00
2022-09-23T15:55:31.952Z,48.76
2022-09-23T15:58:01.251Z,48.05
2022-09-23T16:00:29.127Z,49.13
2022-09-23T16:02:56.885Z,50.89
2022-09-23T16:05:30.770Z,51.19
2022-09-23T16:07:58.895Z,51.04
2022-09-23T16:10:27.135Z,51.05
2022-09-23T16:13:00.137Z,51.50
2022-09-23T16:15:32.046Z,51.56
2022-09-23T16:18:00.250Z,51.89
2022-09-23T16:20:29.904Z,52.21
2022-09-23T16:22:59.667Z,52.14
2022-09-23T16:25:31.603Z,51.76
2022-09-23T16:28:00.084Z,52.30
2022-09-23T16:30:31.032Z,52.07
2022-09-23T16:33:00.842Z,53.22
2022-09-23T16:35:32.675Z,53.06
2022-09-23T16:38:00.499Z,53.45
2022-09-23T16:40:28.459Z,54.06
2022-09-23T16:42:58.331Z,55.04
2022-09-23T16:45:26.092Z,54.76
2022-09-23T16:47:55.273Z,55.05
2022-09-23T16:50:24.488Z,55.64
2022-09-23T16:52:56.082Z,56.24
2022-09-23T16:55:27.181Z,56.21
2022-09-23T16:57:55.859Z,56.58
2022-09-23T17:00:41.683Z,56.73
2022-09-23T17:03:30.670Z,57.30
2022-09-23T17:05:59.099Z,57.91
2022-09-23T17:08:26.845Z,58.22
2022-09-23T17:10:59.500Z,58.43
2022-09-23T17:13:28.439Z,58.33
2022-09-23T17:15:56.911Z,58.76
2022-09-23T17:18:26.487Z,59.11
2022-09-23T17:20:59.232Z,60.43
2022-09-23T17:23:28.263Z,62.36
2022-09-23T17:25:56.223Z,63.44
2022-09-23T17:28:24.282Z,64.61
2022-09-23T17:30:57.499Z,64.75
2022-09-23T17:33:27.698Z,64.87
2022-09-23T17:35:56.707Z,65.15
2022-09-23T17:38:28.716Z,65.68
2022-09-23T17:40:59.046Z,65.68
2022-09-23T17:43:27.611Z,65.34
2022-09-23T17:45:58.118Z,65.26
2022-09-23T17:48:27.342Z,65.21
2022-09-23T17:50:56.687Z,65.51
2022-09-23T17:53:24.839Z,65.66
2022-09-23T17:55:57.131Z,67.92
2022-09-23T17:58:26.237Z,69.21
2022-09-23T18:00:54.435Z,69.22
2022-09-23T18:03:22.316Z,69.20
2022-09-23T18:05:51.477Z,68.92
2022-09-23T18:08:19.395Z,69.11
2022-09-23T18:10:47.315Z,68.93
2022-09-23T18:13:15.175Z,70.26
2022-09-23T18:15:42.976Z,71.09
2022-09-23T18:18:10.760Z,72.00
2022-09-23T18:20:38.522Z,71.74
2022-09-23T18:23:08.799Z,72.06
2022-09-23T18:25:39.455Z,72.87
2022-09-23T18:28:08.134Z,72.72
2022-09-23T18:30:35.998Z,72.97
2022-09-23T18:33:03.999Z,72.65
2022-09-23T18:35:32.484Z,72.59
2022-09-23T18:38:00.337Z,74.06
2022-09-23T18:40:29.612Z,75.17
2022-09-23T18:42:57.475Z,75.08
2022-09-23T18:45:25.478Z,74.80
2022-09-23T18:48:10.945Z,75.34
2022-09-23T18:50:43.043Z,76.40
2022-09-23T18:53:11.321Z,76.68
2022-09-23T18:55:41.064Z,76.99
2022-09-23T18:58:10.358Z,77.41
2022-09-23T19:00:38.237Z,76.69
2022-09-23T19:03:06.288Z,77.12
2022-09-23T19:05:35.244Z,76.37
2022-09-23T19:08:03.579Z,76.54
2022-09-23T19:10:31.402Z,76.65
2022-09-23T19:13:00.608Z,76.55
2022-09-23T19:15:28.518Z,76.94
2022-09-23T19:17:56.301Z,75.16
2022-09-23T19:20:24.697Z,76.84
2022-09-23T19:22:52.525Z,75.74
2022-09-23T19:25:20.387Z,75.36
2022-09-23T19:27:48.957Z,75.61
2022-09-23T19:30:19.332Z,75.74
2022-09-23T19:32:48.964Z,76.99
2022-09-23T19:35:16.798Z,77.67
2022-09-23T19:37:45.999Z,78.25
2022-09-23T19:40:14.728Z,77.89
2022-09-23T19:42:42.937Z,78.73
2022-09-23T19:45:11.295Z,78.73
2022-09-23T19:47:40.424Z,79.15
2022-09-23T19:50:09.335Z,78.95
2022-09-23T19:52:37.785Z,80.63
2022-09-23T19:55:06.627Z,81.00
2022-09-23T19:57:34.485Z,80.88
2022-09-23T20:00:02.798Z,81.21
2022-09-23T20:02:32.284Z,81.31
2022-09-23T20:05:01.471Z,81.44
2022-09-23T20:07:29.375Z,82.18
2022-09-23T20:09:57.731Z,82.85
2022-09-23T20:12:25.531Z,83.96
2022-09-23T20:14:53.253Z,83.68
2022-09-23T20:17:21.142Z,84.04
2022-09-23T20:19:48.865Z,84.65
2022-09-23T20:22:32.399Z,84.99
2022-09-23T20:25:02.139Z,84.48
2022-09-23T20:27:31.152Z,84.78
2022-09-23T20:29:59.355Z,85.09
2022-09-23T20:32:28.073Z,85.79
2022-09-23T20:34:56.329Z,85.79
2022-09-23T20:37:25.805Z,84.91
2022-09-23T20:39:54.000Z,84.04
2022-09-23T20:42:22.239Z,82.60
2022-09-23T20:44:50.034Z,83.32
2022-09-23T20:47:20.108Z,82.41
2022-09-23T20:49:48.890Z,81.92
2022-09-23T20:52:20.229Z,81.86
2022-09-23T20:54:51.511Z,82.55
2022-09-23T20:57:20.987Z,82.09
2022-09-23T20:59:49.718Z,81.78
2022-09-23T21:02:17.664Z,82.64
2022-09-23T21:04:45.531Z,82.26
2022-09-23T21:07:13.381Z,81.64
2022-09-23T21:09:41.443Z,81.90
2022-09-23T21:12:11.410Z,82.46
2022-09-23T21:14:39.351Z,83.09
2022-09-23T21:17:07.128Z,83.73
2022-09-23T21:19:38.084Z,84.00
2022-09-23T21:22:05.977Z,82.34
2022-09-23T21:25:03.810Z,84.46
2022-09-23T21:27:22.908Z,83.94
2022-09-23T21:29:50.825Z,84.69
2022-09-23T21:32:18.552Z,85.74
2022-09-23T21:34:46.569Z,85.09
2022-09-23T21:37:14.365Z,86.37
2022-09-23T21:40:02.111Z,86.31
2022-09-23T21:42:31.243Z,87.08
2022-09-23T21:44:59.034Z,87.84
2022-09-23T21:47:26.969Z,88.42
2022-09-23T21:49:54.710Z,88.18
2022-09-23T21:52:22.525Z,87.27
2022-09-23T21:54:50.251Z,87.98
2022-09-23T21:57:18.066Z,88.55
2022-09-23T21:59:47.276Z,89.01
2022-09-23T22:02:15.864Z,88.93
2022-09-23T22:04:43.687Z,89.04
2022-09-23T22:07:11.419Z,89.26
2022-09-23T22:09:40.082Z,89.90
2022-09-23T22:12:09.770Z,89.83
2022-09-23T22:14:38.843Z,89.65
2022-09-23T22:17:10.369Z,89.61
2022-09-23T22:19:44.234Z,88.83
2022-09-23T22:22:17.539Z,88.29
2022-09-23T22:24:46.882Z,88.60
2022-09-23T22:27:17.363Z,88.85
2022-09-23T22:30:02.467Z,88.44
2022-09-23T22:32:41.479Z,88.40
2022-09-23T22:35:10.223Z,87.79
2022-09-23T22:37:38.400Z,88.30
2022-09-23T22:40:09.953Z,88.13
2022-09-23T22:42:39.346Z,88.40
2022-09-23T22:45:08.854Z,88.32
2022-09-23T22:47:39.608Z,88.38
2022-09-23T22:50:09.710Z,88.78
2022-09-23T22:52:38.043Z,88.82
2022-09-23T22:55:07.984Z,88.10
2022-09-23T22:57:37.174Z,87.56
2022-09-23T23:00:05.389Z,88.15
2022-09-23T23:02:33.199Z,87.71
2022-09-23T23:05:02.542Z,87.63
2022-09-23T23:07:30.371Z,88.03
2022-09-23T23:09:58.117Z,88.07
2022-09-23T23:12:26.027Z,87.99
2022-09-23T23:14:53.733Z,87.64
2022-09-23T23:17:21.792Z,87.71
2022-09-23T23:19:50.385Z,88.04
2022-09-23T23:22:19.550Z,87.92
2022-09-23T23:24:47.353Z,87.85
2022-09-23T23:27:15.086Z,87.93
2022-09-23T23:29:42.819Z,87.66
2022-09-23T23:32:10.764Z,88.00
2022-09-23T23:34:38.709Z,88.25
2022-09-23T23:37:06.448Z,88.64
2022-09-23T23:39:35.518Z,89.02
2022-09-23T23:42:04.107Z,88.93
2022-09-23T23:44:34.274Z,88.67
2022-09-23T23:47:02.202Z,88.64
2022-09-23T23:49:30.311Z,89.17
2022-09-23T23:51:58.176Z,89.26
2022-09-23T23:54:25.951Z,89.82
2022-09-23T23:56:55.116Z,90.48
2022-09-23T23:59:22.984Z,90.19
